Time;durP1;ratioP1;P1;durP2;ratioP2;P2;SDS_P1;SDS_P2;PMS_P1;PMS_P2;Temp;Humidity;BMP_temperature;BMP_pressure;BME280_temperature;BME280_humidity;BME280_pressure;Samples;Min_cycle;Max_cycle;Signal;HPM_P1;HPM_P2
2023/12/25 00:01:22;;;;;;;;;;;;;;;21.74;22.36;97447.00;4997091;28;994;-75
2023/12/25 00:03:48;;;;;;;;;;;;;;;21.72;22.28;97443.84;5015475;28;1918;-74
2023/12/25 00:06:14;;;;;;;;;;;;;;;21.94;22.49;97445.91;4984643;28;932;-74
2023/12/25 00:08:39;;;;;;;;;;;;;;;21.79;22.49;97454.13;5000964;28;941;-74
2023/12/25 00:11:05;;;;;;;;;;;;;;;21.78;22.39;97453.34;4984714;28;971;-74
2023/12/25 00:13:31;;;;;;;;;;;;;;;21.72;22.26;97449.53;5000794;28;1048;-74
2023/12/25 00:15:56;;;;;;;;;;;;;;;21.69;22.29;97444.75;4977938;28;1218;-75
2023/12/25 00:18:22;;;;;;;;;;;;;;;21.35;22.80;97441.94;4979566;28;1103;-74
2023/12/25 00:20:47;;;;;;;;;;;;;;;21.41;22.87;97440.13;5017113;28;948;-74
2023/12/25 00:23:13;;;;;;;;;;;;;;;21.55;22.71;97442.44;5017098;28;1902;-74
2023/12/25 00:25:38;;;;;;;;;;;;;;;21.79;22.49;97446.44;5017232;28;1029;-74
2023/12/25 00:28:04;;;;;;;;;;;;;;;21.69;22.47;97443.97;5017271;28;1010;-74
2023/12/25 00:30:30;;;;;;;;;;;;;;;21.74;22.67;97452.69;5017117;28;1018;-74
2023/12/25 00:32:56;;;;;;;;;;;;;;;21.97;22.17;97442.97;5000519;28;1043;-74
2023/12/25 00:35:21;;;;;;;;;;;;;;;21.95;22.25;97450.31;5016720;28;917;-74
2023/12/25 00:37:47;;;;;;;;;;;;;;;21.75;22.38;97451.41;5016957;28;1011;-75
2023/12/25 00:40:13;;;;;;;;;;;;;;;21.53;22.58;97453.44;5016910;28;1183;-74
2023/12/25 00:42:38;;;;;;;;;;;;;;;21.60;22.59;97458.84;5016876;28;1910;-74
2023/12/25 00:45:04;;;;;;;;;;;;;;;21.93;22.50;97461.34;5016782;28;1163;-74
2023/12/25 00:47:30;;;;;;;;;;;;;;;21.73;22.43;97451.09;4996777;28;1150;-74
2023/12/25 00:49:55;;;;;;;;;;;;;;;21.55;22.58;97451.75;5013388;28;1267;-74
2023/12/25 00:52:21;;;;;;;;;;;;;;;21.62;22.73;97461.22;4997343;28;1014;-74
2023/12/25 00:54:47;;;;;;;;;;;;;;;21.03;23.66;97461.53;4996909;28;1019;-74
2023/12/25 00:57:12;;;;;;;;;;;;;;;21.45;23.08;97452.09;4997022;28;931;-74
2023/12/25 00:59:38;;;;;;;;;;;;;;;21.64;22.71;97453.84;4997043;28;1178;-75
2023/12/25 01:02:04;;;;;;;;;;;;;;;21.73;22.46;97445.44;4980778;28;1907;-74
2023/12/25 01:04:29;;;;;;;;;;;;;;;21.84;22.42;97451.50;4957838;28;1280;-74
2023/12/25 01:06:55;;;;;;;;;;;;;;;21.69;22.53;97441.94;4958145;28;1007;-74
2023/12/25 01:09:21;;;;;;;;;;;;;;;22.01;22.10;97437.13;4957986;28;1032;-74
2023/12/25 01:11:46;;;;;;;;;;;;;;;21.90;22.40;97436.75;4942171;28;948;-74
2023/12/25 01:14:12;;;;;;;;;;;;;;;21.92;22.25;97437.09;4941463;28;1172;-74
2023/12/25 01:16:38;;;;;;;;;;;;;;;21.74;22.61;97423.56;4957304;28;1128;-74
2023/12/25 01:19:04;;;;;;;;;;;;;;;21.75;22.51;97425.94;4958137;28;1246;-73
2023/12/25 01:21:32;;;;;;;;;;;;;;;21.91;22.46;97421.34;4957711;28;1563;-74
2023/12/25 01:23:58;;;;;;;;;;;;;;;21.77;22.55;97423.44;4947809;28;982;-74
2023/12/25 01:26:23;;;;;;;;;;;;;;;21.90;22.26;97416.94;5016204;28;1102;-74
2023/12/25 01:28:49;;;;;;;;;;;;;;;21.81;22.59;97412.78;5016181;28;944;-74
2023/12/25 01:31:16;;;;;;;;;;;;;;;22.22;22.00;97419.34;5015869;28;1204;-74
2023/12/25 01:33:42;;;;;;;;;;;;;;;22.01;22.15;97414.47;4983382;28;1478;-74
2023/12/25 01:36:08;;;;;;;;;;;;;;;22.07;22.24;97401.28;5026510;28;1263;-75
2023/12/25 01:38:34;;;;;;;;;;;;;;;21.96;22.17;97409.41;5035503;28;1365;-74
2023/12/25 01:41:00;;;;;;;;;;;;;;;21.57;22.66;97400.31;5018766;28;1000;-74
2023/12/25 01:43:27;;;;;;;;;;;;;;;20.94;23.53;97406.94;5019182;28;1906;-75
2023/12/25 01:45:52;;;;;;;;;;;;;;;21.04;23.43;97394.47;5035445;28;1203;-74
2023/12/25 01:48:18;;;;;;;;;;;;;;;21.33;23.21;97395.06;5019039;28;1115;-74
2023/12/25 01:50:43;;;;;;;;;;;;;;;21.77;22.41;97402.84;5018791;28;1401;-74
2023/12/25 01:53:09;;;;;;;;;;;;;;;21.76;22.60;97393.56;5035436;28;999;-74
2023/12/25 01:55:35;;;;;;;;;;;;;;;22.00;22.28;97384.56;5018490;28;1386;-74
2023/12/25 01:58:01;;;;;;;;;;;;;;;21.97;22.45;97391.19;5018829;28;1429;-74
2023/12/25 02:00:27;;;;;;;;;;;;;;;21.72;22.57;97387.22;5018675;28;1166;-75
2023/12/25 02:02:52;;;;;;;;;;;;;;;21.87;22.68;97390.31;4979249;28;1964;-75
2023/12/25 02:05:18;;;;;;;;;;;;;;;21.75;22.61;97383.47;4979518;28;1252;-74
2023/12/25 02:07:43;;;;;;;;;;;;;;;21.66;22.84;97377.75;4979514;28;1097;-74
2023/12/25 02:10:09;;;;;;;;;;;;;;;21.81;22.56;97383.66;4996005;28;1041;-74
2023/12/25 02:12:35;;;;;;;;;;;;;;;21.83;22.79;97387.63;4995273;28;1033;-75
2023/12/25 02:15:01;;;;;;;;;;;;;;;21.89;22.57;97392.69;4963077;28;1313;-74
2023/12/25 02:17:27;;;;;;;;;;;;;;;21.99;22.49;97383.78;4979316;28;1127;-74
2023/12/25 02:19:53;;;;;;;;;;;;;;;21.92;22.54;97381.25;4940425;29;1205;-74
2023/12/25 02:22:18;;;;;;;;;;;;;;;21.95;22.55;97382.34;4956699;29;1981;-74
2023/12/25 02:25:02;;;;;;;;;;;;;;;21.95;22.73;97368.19;4940669;29;900;-75
2023/12/25 02:27:28;;;;;;;;;;;;;;;21.98;22.68;97370.09;4940738;29;1145;-74
2023/12/25 02:29:54;;;;;;;;;;;;;;;21.56;23.23;97379.72;4940257;29;975;-75
2023/12/25 02:32:19;;;;;;;;;;;;;;;21.17;23.93;97378.25;4956626;29;1062;-74
2023/12/25 02:34:47;;;;;;;;;;;;;;;21.48;23.67;97386.88;4924460;29;1578;-74
2023/12/25 02:37:13;;;;;;;;;;;;;;;21.68;23.07;97383.72;4956183;29;1008;-74
2023/12/25 02:39:39;;;;;;;;;;;;;;;21.73;23.32;97388.81;4953491;28;1073;-74
2023/12/25 02:42:04;;;;;;;;;;;;;;;21.65;23.06;97393.13;4998451;28;1974;-76
2023/12/25 02:44:30;;;;;;;;;;;;;;;21.85;22.77;97390.78;4997327;28;1002;-74
2023/12/25 02:46:55;;;;;;;;;;;;;;;21.88;22.81;97393.94;4978590;28;1107;-74
2023/12/25 02:49:21;;;;;;;;;;;;;;;21.92;22.93;97383.28;4995024;28;1174;-74
2023/12/25 02:51:47;;;;;;;;;;;;;;;21.84;23.25;97377.88;5016356;28;1148;-74
2023/12/25 02:54:13;;;;;;;;;;;;;;;21.83;22.78;97381.94;5005729;28;1483;-74
2023/12/25 02:56:39;;;;;;;;;;;;;;;21.96;22.85;97384.69;4997791;28;1145;-74
2023/12/25 02:59:05;;;;;;;;;;;;;;;22.11;22.52;97373.66;4965795;28;1128;-74
2023/12/25 03:01:30;;;;;;;;;;;;;;;22.03;22.68;97372.34;5014073;28;1027;-74
2023/12/25 03:03:56;;;;;;;;;;;;;;;21.82;22.85;97383.22;4997607;28;1971;-75
2023/12/25 03:06:22;;;;;;;;;;;;;;;21.66;23.34;97377.75;4997876;28;1395;-75
2023/12/25 03:08:47;;;;;;;;;;;;;;;21.60;23.23;97373.91;4981541;28;1096;-74
2023/12/25 03:11:13;;;;;;;;;;;;;;;21.68;23.38;97369.56;4981509;28;1097;-74
2023/12/25 03:13:39;;;;;;;;;;;;;;;21.80;23.21;97362.25;4997624;28;1023;-74
2023/12/25 03:16:07;;;;;;;;;;;;;;;21.75;23.29;97362.84;4978450;28;1207;-74
2023/12/25 03:18:33;;;;;;;;;;;;;;;21.78;23.24;97362.72;4958758;28;1152;-74
2023/12/25 03:20:58;;;;;;;;;;;;;;;21.78;22.92;97357.06;4958696;28;982;-74
2023/12/25 03:23:24;;;;;;;;;;;;;;;21.82;22.83;97354.91;4958760;28;1906;-75
2023/12/25 03:25:50;;;;;;;;;;;;;;;22.01;22.50;97369.16;4958961;28;1010;-74
2023/12/25 03:28:15;;;;;;;;;;;;;;;21.91;22.99;97361.84;4974862;28;1085;-74
2023/12/25 03:30:41;;;;;;;;;;;;;;;21.52;23.31;97358.44;4974787;28;1525;-74
2023/12/25 03:33:09;;;;;;;;;;;;;;;21.71;22.85;97363.00;4955312;29;1117;-75
2023/12/25 03:35:35;;;;;;;;;;;;;;;21.89;22.59;97367.19;4955446;28;1230;-74
2023/12/25 03:38:01;;;;;;;;;;;;;;;22.03;22.36;97372.34;4919729;29;1204;-74
2023/12/25 03:40:26;;;;;;;;;;;;;;;22.02;22.26;97370.72;4904690;29;1150;-74
2023/12/25 03:42:54;;;;;;;;;;;;;;;21.95;22.62;97373.84;4904848;29;1911;-74
2023/12/25 03:45:20;;;;;;;;;;;;;;;21.89;22.55;97372.88;4904746;29;1258;-74
2023/12/25 03:47:46;;;;;;;;;;;;;;;21.48;22.98;97369.88;4904697;29;1280;-74
2023/12/25 03:50:12;;;;;;;;;;;;;;;21.68;22.65;97369.56;4935984;29;952;-75
2023/12/25 03:52:38;;;;;;;;;;;;;;;21.75;22.62;97369.31;4920074;29;1126;-74
2023/12/25 03:55:03;;;;;;;;;;;;;;;21.94;22.68;97358.09;4886809;29;1257;-74
2023/12/25 03:57:29;;;;;;;;;;;;;;;21.98;22.54;97359.56;4882626;29;1177;-74
2023/12/25 03:59:55;;;;;;;;;;;;;;;21.60;22.62;97356.91;4898322;29;1002;-74
2023/12/25 04:02:20;;;;;;;;;;;;;;;21.22;23.23;97366.34;4898061;29;1907;-75
2023/12/25 04:04:46;;;;;;;;;;;;;;;21.18;23.48;97371.31;4942903;29;955;-76
2023/12/25 04:07:11;;;;;;;;;;;;;;;21.61;23.06;97367.03;4923281;28;1112;-76
2023/12/25 04:09:38;;;;;;;;;;;;;;;21.71;22.65;97374.34;4935890;29;1302;-76
2023/12/25 04:12:04;;;;;;;;;;;;;;;21.64;22.77;97373.78;4916897;29;1058;-75
2023/12/25 04:14:29;;;;;;;;;;;;;;;21.53;22.70;97380.63;4919038;29;1161;-75
2023/12/25 04:16:56;;;;;;;;;;;;;;;21.80;22.57;97382.88;4904402;29;1344;-75
2023/12/25 04:19:21;;;;;;;;;;;;;;;21.97;22.38;97388.34;4919909;29;1177;-75
2023/12/25 04:21:47;;;;;;;;;;;;;;;21.85;22.41;97385.09;4935557;29;1903;-75
2023/12/25 04:24:12;;;;;;;;;;;;;;;21.95;22.37;97376.66;4935884;29;786;-75
2023/12/25 04:26:38;;;;;;;;;;;;;;;22.03;22.23;97372.34;4919868;29;1248;-75
2023/12/25 04:29:04;;;;;;;;;;;;;;;22.00;22.02;97370.41;4919988;29;990;-75
2023/12/25 04:31:30;;;;;;;;;;;;;;;22.01;22.36;97375.59;4921607;29;1155;-75
2023/12/25 04:33:56;;;;;;;;;;;;;;;21.77;22.44;97371.69;4954927;29;1164;-76
2023/12/25 04:36:21;;;;;;;;;;;;;;;21.16;23.26;97368.19;4938958;29;1240;-75
2023/12/25 04:38:47;;;;;;;;;;;;;;;21.16;23.18;97362.53;4939112;29;1089;-75
2023/12/25 04:41:13;;;;;;;;;;;;;;;21.53;22.48;97363.66;4954909;29;1192;-75
2023/12/25 04:43:39;;;;;;;;;;;;;;;21.54;22.67;97364.44;4954916;29;1993;-75
2023/12/25 04:46:05;;;;;;;;;;;;;;;21.38;23.02;97354.09;4926952;28;1484;-75
2023/12/25 04:48:31;;;;;;;;;;;;;;;21.76;22.66;97342.59;4979081;28;1216;-75
2023/12/25 04:50:58;;;;;;;;;;;;;;;21.63;22.63;97344.69;4975858;28;981;-75
2023/12/25 04:53:24;;;;;;;;;;;;;;;21.55;22.94;97344.19;4958043;29;1080;-75
2023/12/25 04:55:50;;;;;;;;;;;;;;;21.75;22.71;97345.84;4958329;29;1000;-75
2023/12/25 04:58:15;;;;;;;;;;;;;;;21.73;22.64;97337.84;4897819;29;1141;-75
2023/12/25 05:00:42;;;;;;;;;;;;;;;21.74;22.69;97347.91;4920100;29;1198;-75
2023/12/25 05:03:07;;;;;;;;;;;;;;;21.68;22.62;97346.94;4904268;29;1984;-75
2023/12/25 05:05:33;;;;;;;;;;;;;;;21.97;22.57;97362.84;4919918;29;1091;-76
2023/12/25 05:07:58;;;;;;;;;;;;;;;21.89;22.40;97358.69;4919930;29;973;-75
2023/12/25 05:10:24;;;;;;;;;;;;;;;21.93;22.40;97362.19;4919794;29;1158;-75
2023/12/25 05:12:50;;;;;;;;;;;;;;;21.50;22.99;97355.28;4919335;29;1118;-75
2023/12/25 05:15:15;;;;;;;;;;;;;;;21.80;22.49;97353.75;4919600;29;1282;-75
2023/12/25 05:17:41;;;;;;;;;;;;;;;21.65;22.78;97364.03;4952718;29;1155;-75
2023/12/25 05:20:06;;;;;;;;;;;;;;;20.98;23.51;97365.16;4925717;29;1130;-75
2023/12/25 05:22:33;;;;;;;;;;;;;;;20.98;23.61;97362.31;4969316;28;1977;-75
2023/12/25 05:24:58;;;;;;;;;;;;;;;21.39;23.08;97374.69;5015789;28;812;-75
2023/12/25 05:27:24;;;;;;;;;;;;;;;21.47;22.99;97373.97;4999382;28;1070;-75
2023/12/25 05:29:49;;;;;;;;;;;;;;;21.42;23.25;97370.94;4999187;28;1134;-75
2023/12/25 05:32:15;;;;;;;;;;;;;;;21.66;23.06;97376.94;4999549;28;1131;-75
2023/12/25 05:34:40;;;;;;;;;;;;;;;21.71;22.66;97371.50;5015654;28;902;-75
2023/12/25 05:37:06;;;;;;;;;;;;;;;21.80;22.63;97365.88;5015696;28;752;-75
2023/12/25 05:39:31;;;;;;;;;;;;;;;21.78;22.76;97361.94;4998877;28;724;-75
2023/12/25 05:41:57;;;;;;;;;;;;;;;21.78;22.54;97357.06;5015375;28;1991;-75
2023/12/25 05:44:23;;;;;;;;;;;;;;;21.75;22.68;97349.47;5014990;28;970;-75
2023/12/25 05:46:48;;;;;;;;;;;;;;;21.89;22.61;97358.69;5028546;28;1169;-75
2023/12/25 05:49:14;;;;;;;;;;;;;;;21.70;23.05;97361.41;5023187;28;1120;-75
2023/12/25 05:51:39;;;;;;;;;;;;;;;22.03;22.57;97353.28;5039660;28;882;-75
2023/12/25 05:54:06;;;;;;;;;;;;;;;21.90;22.67;97351.78;5039236;28;736;-75
2023/12/25 05:56:31;;;;;;;;;;;;;;;21.96;22.51;97353.53;5057317;28;925;-75
2023/12/25 05:58:57;;;;;;;;;;;;;;;21.79;22.74;97352.97;5039335;28;830;-75
2023/12/25 06:01:22;;;;;;;;;;;;;;;21.90;22.83;97357.44;5038913;28;1289;-75
2023/12/25 06:03:49;;;;;;;;;;;;;;;21.84;22.81;97354.41;5057068;28;1910;-75
2023/12/25 06:06:14;;;;;;;;;;;;;;;21.30;23.48;97350.72;4981871;28;951;-75
2023/12/25 06:08:40;;;;;;;;;;;;;;;21.05;23.73;97353.63;5014907;28;888;-75
2023/12/25 06:11:05;;;;;;;;;;;;;;;21.18;23.40;97348.69;5014732;28;766;-76
2023/12/25 06:13:31;;;;;;;;;;;;;;;21.39;23.31;97341.50;4982464;28;1663;-75
2023/12/25 06:15:57;;;;;;;;;;;;;;;21.72;22.82;97349.63;4998398;28;1097;-75
2023/12/25 06:18:22;;;;;;;;;;;;;;;21.74;22.79;97350.75;5014573;28;739;-75
2023/12/25 06:20:48;;;;;;;;;;;;;;;21.73;22.82;97357.66;4998587;28;906;-75
2023/12/25 06:23:13;;;;;;;;;;;;;;;21.90;22.64;97360.28;5014781;28;1981;-75
2023/12/25 06:25:39;;;;;;;;;;;;;;;21.74;22.75;97367.72;4998003;28;1035;-75
2023/12/25 06:28:05;;;;;;;;;;;;;;;21.62;22.74;97365.75;5014480;28;945;-75
2023/12/25 06:30:30;;;;;;;;;;;;;;;21.92;22.58;97361.41;4998055;28;960;-75
2023/12/25 06:32:56;;;;;;;;;;;;;;;22.08;22.18;97366.06;4997975;28;842;-75
2023/12/25 06:35:22;;;;;;;;;;;;;;;21.91;22.39;97359.81;4997950;28;950;-75
2023/12/25 06:37:47;;;;;;;;;;;;;;;21.69;22.93;97365.50;5028309;28;850;-75
2023/12/25 06:40:13;;;;;;;;;;;;;;;22.02;22.29;97365.06;5056689;28;779;-75
2023/12/25 06:42:38;;;;;;;;;;;;;;;21.95;22.46;97362.50;5056379;28;1914;-75
2023/12/25 06:45:08;;;;;;;;;;;;;;;21.92;22.34;97374.78;5056613;28;755;-75
2023/12/25 06:47:36;;;;;;;;;;;;;;;21.67;22.90;97373.66;5038997;28;1567;-75
2023/12/25 06:50:02;;;;;;;;;;;;;;;21.37;23.39;97374.38;5056435;28;759;-75
2023/12/25 06:52:28;;;;;;;;;;;;;;;21.35;23.15;97374.00;5038622;28;1427;-75
2023/12/25 06:54:53;;;;;;;;;;;;;;;21.54;23.01;97375.75;5056104;28;755;-75
2023/12/25 06:57:19;;;;;;;;;;;;;;;21.66;22.78;97374.91;5005730;28;1113;-75
2023/12/25 06:59:45;;;;;;;;;;;;;;;21.66;22.71;97376.94;5038411;28;775;-75
2023/12/25 07:02:11;;;;;;;;;;;;;;;21.79;22.73;97364.31;5013513;28;1985;-75
2023/12/25 07:04:36;;;;;;;;;;;;;;;21.85;22.65;97379.44;4978065;28;1125;-75
2023/12/25 07:07:02;;;;;;;;;;;;;;;21.82;22.60;97380.38;4978009;28;1790;-75
2023/12/25 07:09:28;;;;;;;;;;;;;;;21.76;22.61;97393.56;4993975;28;984;-75
2023/12/25 07:11:53;;;;;;;;;;;;;;;21.91;22.58;97387.34;4994549;28;911;-75
2023/12/25 07:14:19;;;;;;;;;;;;;;;21.92;22.57;97395.41;4993696;28;759;-75
2023/12/25 07:16:44;;;;;;;;;;;;;;;22.04;22.36;97396.56;4994285;28;894;-75
2023/12/25 07:19:10;;;;;;;;;;;;;;;22.00;22.67;97412.91;4993990;28;913;-75
2023/12/25 07:21:36;;;;;;;;;;;;;;;21.83;22.65;97406.66;4994009;28;787;-75
2023/12/25 07:24:01;;;;;;;;;;;;;;;22.02;22.23;97413.22;4993799;28;1969;-75
2023/12/25 07:26:28;;;;;;;;;;;;;;;22.02;22.28;97421.72;4977701;28;1222;-75
2023/12/25 07:28:54;;;;;;;;;;;;;;;21.96;22.54;97413.03;4994049;28;814;-75
2023/12/25 07:31:20;;;;;;;;;;;;;;;21.86;22.64;97405.72;4993853;28;946;-75
2023/12/25 07:33:46;;;;;;;;;;;;;;;21.93;22.73;97407.50;4996975;28;945;-75
2023/12/25 07:36:12;;;;;;;;;;;;;;;21.78;22.73;97408.03;5016086;28;1204;-75
2023/12/25 07:38:38;;;;;;;;;;;;;;;21.81;22.92;97414.81;5021269;28;770;-75
2023/12/25 07:41:07;;;;;;;;;;;;;;;21.82;22.67;97420.03;5037654;28;1279;-75
2023/12/25 07:43:32;;;;;;;;;;;;;;;21.24;23.56;97403.47;5021208;28;1898;-75
2023/12/25 07:45:58;;;;;;;;;;;;;;;21.39;23.46;97408.66;5037680;28;882;-75
2023/12/25 07:48:23;;;;;;;;;;;;;;;21.66;23.03;97406.06;5021043;28;1127;-75
2023/12/25 07:50:51;;;;;;;;;;;;;;;21.73;23.01;97402.97;5055152;28;842;-75
2023/12/25 07:53:17;;;;;;;;;;;;;;;21.69;22.75;97396.63;5055128;28;794;-75
2023/12/25 07:55:42;;;;;;;;;;;;;;;21.88;22.88;97405.28;5038138;28;719;-75
2023/12/25 07:58:10;;;;;;;;;;;;;;;22.00;22.61;97407.25;5020807;28;763;-75
2023/12/25 08:00:36;;;;;;;;;;;;;;;21.69;22.96;97405.13;5021592;28;908;-75
2023/12/25 08:03:01;;;;;;;;;;;;;;;21.94;22.84;97409.88;5020849;28;1906;-75
2023/12/25 08:05:27;;;;;;;;;;;;;;;22.08;22.46;97400.06;5037308;28;841;-75
2023/12/25 08:07:52;;;;;;;;;;;;;;;21.90;22.67;97408.44;5037599;28;888;-75
2023/12/25 08:10:18;;;;;;;;;;;;;;;22.03;22.30;97392.16;5021466;28;758;-75
2023/12/25 08:12:44;;;;;;;;;;;;;;;22.01;22.60;97405.97;5037233;28;719;-75
2023/12/25 08:15:11;;;;;;;;;;;;;;;22.02;22.53;97410.38;5021049;28;1132;-75
2023/12/25 08:17:36;;;;;;;;;;;;;;;22.06;22.81;97422.38;5021064;28;1618;-75
2023/12/25 08:20:02;;;;;;;;;;;;;;;21.93;22.77;97401.84;5037188;28;1389;-75
2023/12/25 08:22:28;;;;;;;;;;;;;;;21.47;23.54;97407.94;5037181;28;1979;-75
2023/12/25 08:24:53;;;;;;;;;;;;;;;21.39;23.51;97420.75;5038984;28;791;-75
2023/12/25 08:27:19;;;;;;;;;;;;;;;21.39;23.39;97419.97;5041165;28;748;-75
2023/12/25 08:29:44;;;;;;;;;;;;;;;21.49;23.53;97418.81;5024854;28;1116;-75
2023/12/25 08:32:10;;;;;;;;;;;;;;;21.82;23.06;97408.69;5041210;28;869;-75
2023/12/25 08:34:38;;;;;;;;;;;;;;;21.99;22.96;97408.50;5041203;28;1769;-75
2023/12/25 08:37:03;;;;;;;;;;;;;;;22.04;22.52;97396.56;4980991;28;881;-75
2023/12/25 08:39:29;;;;;;;;;;;;;;;22.01;22.88;97397.47;4981020;28;803;-75
2023/12/25 08:41:56;;;;;;;;;;;;;;;22.05;22.81;97392.47;4947936;28;2021;-75
2023/12/25 08:44:23;;;;;;;;;;;;;;;22.10;22.83;97403.22;4997383;28;897;-75
2023/12/25 08:46:48;;;;;;;;;;;;;;;21.82;23.25;97403.03;4997031;28;1342;-75
2023/12/25 08:49:14;;;;;;;;;;;;;;;21.24;24.00;97386.50;4964688;28;830;-75
2023/12/25 08:51:40;;;;;;;;;;;;;;;21.37;23.61;97375.16;4964248;28;1191;-75
2023/12/25 08:54:07;;;;;;;;;;;;;;;21.52;23.43;97372.59;4980765;28;724;-75
2023/12/25 08:56:32;;;;;;;;;;;;;;;21.82;23.27;97363.38;4980710;28;914;-75
2023/12/25 08:59:00;;;;;;;;;;;;;;;21.77;23.43;97349.81;4980414;28;743;-75
2023/12/25 09:01:25;;;;;;;;;;;;;;;21.85;23.40;97356.78;4996576;28;850;-75
2023/12/25 09:03:51;;;;;;;;;;;;;;;21.75;23.21;97357.97;4964434;28;1915;-75
2023/12/25 09:06:16;;;;;;;;;;;;;;;21.94;23.21;97346.78;4980263;28;1596;-75
2023/12/25 09:08:42;;;;;;;;;;;;;;;21.85;23.05;97351.13;5010192;28;1202;-75
2023/12/25 09:11:09;;;;;;;;;;;;;;;21.94;23.04;97358.09;5019117;28;775;-75
2023/12/25 09:13:34;;;;;;;;;;;;;;;22.00;23.07;97353.41;5019125;28;826;-75
2023/12/25 09:16:00;;;;;;;;;;;;;;;21.79;23.42;97364.31;5019000;28;1198;-75
2023/12/25 09:18:26;;;;;;;;;;;;;;;21.66;23.48;97349.44;5023318;28;1129;-75
2023/12/25 09:20:51;;;;;;;;;;;;;;;21.85;23.44;97351.13;5040224;28;747;-75
2023/12/25 09:23:18;;;;;;;;;;;;;;;22.03;23.30;97344.78;5040480;28;1910;-76
2023/12/25 09:25:43;;;;;;;;;;;;;;;21.93;23.36;97343.16;5058015;28;775;-75
2023/12/25 09:28:09;;;;;;;;;;;;;;;22.02;23.53;97331.06;5040424;28;836;-75
2023/12/25 09:30:34;;;;;;;;;;;;;;;22.03;23.43;97344.00;5039990;28;790;-75
2023/12/25 09:33:00;;;;;;;;;;;;;;;22.03;23.15;97339.13;5057845;28;747;-75
2023/12/25 09:35:25;;;;;;;;;;;;;;;21.71;23.51;97351.69;5006405;28;1148;-75
2023/12/25 09:37:51;;;;;;;;;;;;;;;21.39;23.92;97343.56;5039330;28;760;-75
2023/12/25 09:40:17;;;;;;;;;;;;;;;21.34;24.24;97344.94;5039731;28;965;-75
2023/12/25 09:42:44;;;;;;;;;;;;;;;21.65;23.74;97339.34;5039717;28;1981;-76
2023/12/25 09:45:10;;;;;;;;;;;;;;;21.73;23.91;97349.16;5040287;28;800;-75
2023/12/25 09:47:35;;;;;;;;;;;;;;;21.68;23.77;97341.25;5039432;28;1401;-75
2023/12/25 09:50:01;;;;;;;;;;;;;;;21.64;23.86;97334.94;5056495;28;1593;-75
2023/12/25 09:52:27;;;;;;;;;;;;;;;22.14;23.30;97335.91;5057478;28;827;-75
2023/12/25 09:54:53;;;;;;;;;;;;;;;21.62;23.96;97331.00;5023144;28;1236;-75
2023/12/25 09:57:18;;;;;;;;;;;;;;;21.77;23.74;97343.38;5023171;28;1091;-75
2023/12/25 09:59:44;;;;;;;;;;;;;;;21.97;23.54;97340.19;5006557;28;822;-75
2023/12/25 10:02:09;;;;;;;;;;;;;;;22.06;23.48;97334.56;4979409;28;1910;-75
2023/12/25 10:04:36;;;;;;;;;;;;;;;21.62;24.00;97343.13;4979244;28;1078;-75
2023/12/25 10:07:02;;;;;;;;;;;;;;;21.28;24.50;97347.53;4963318;28;1301;-75
2023/12/25 10:09:29;;;;;;;;;;;;;;;21.40;24.48;97353.63;4963119;28;1214;-75
2023/12/25 10:11:55;;;;;;;;;;;;;;;21.65;24.19;97336.50;4963698;28;1267;-75
2023/12/25 10:14:21;;;;;;;;;;;;;;;21.59;24.35;97338.34;4979171;28;744;-75
2023/12/25 10:16:46;;;;;;;;;;;;;;;21.79;24.27;97341.66;4963026;28;1141;-76
2023/12/25 10:19:12;;;;;;;;;;;;;;;21.60;24.30;97345.59;4978008;28;1374;-75
2023/12/25 10:21:41;;;;;;;;;;;;;;;21.60;24.50;97334.28;4978968;28;1242;-75
2023/12/25 10:24:10;;;;;;;;;;;;;;;21.23;25.00;97339.63;4978749;28;1903;-75
2023/12/25 10:26:36;;;;;;;;;;;;;;;21.59;24.61;97329.88;4978489;28;921;-75
2023/12/25 10:29:10;;;;;;;;;;;;;;;21.65;24.86;97336.50;4994926;28;1013;-75
2023/12/25 10:31:40;;;;;;;;;;;;;;;21.70;24.69;97338.75;4995035;28;724;-75
2023/12/25 10:34:05;;;;;;;;;;;;;;;21.97;24.56;97328.88;5032107;28;814;-75
2023/12/25 10:36:31;;;;;;;;;;;;;;;21.90;24.71;97317.78;5038682;28;1079;-75
2023/12/25 10:38:57;;;;;;;;;;;;;;;21.78;24.65;97313.81;5055549;28;767;-75
2023/12/25 10:41:27;;;;;;;;;;;;;;;21.89;24.73;97307.72;5038659;28;937;-75
2023/12/25 10:43:56;;;;;;;;;;;;;;;21.70;24.90;97304.78;5054790;28;1898;-75
2023/12/25 10:46:23;;;;;;;;;;;;;;;21.62;25.13;97309.13;5055258;28;1015;-75
2023/12/25 10:48:49;;;;;;;;;;;;;;;21.39;25.18;97306.75;5038453;28;727;-75
2023/12/25 10:51:35;;;;;;;;;;;;;;;21.37;25.36;97315.72;5055832;28;850;-75
2023/12/25 10:54:01;;;;;;;;;;;;;;;21.71;24.83;97306.38;5055618;28;1251;-75
2023/12/25 10:56:27;;;;;;;;;;;;;;;21.88;24.57;97309.78;5056265;28;787;-75
2023/12/25 10:58:54;;;;;;;;;;;;;;;22.01;24.28;97304.00;5056150;28;1106;-75
2023/12/25 11:01:27;;;;;;;;;;;;;;;21.92;24.31;97303.97;5038236;28;1120;-75
2023/12/25 11:03:53;;;;;;;;;;;;;;;21.87;24.57;97316.69;5055196;28;1993;-74
2023/12/25 11:06:19;;;;;;;;;;;;;;;21.91;24.14;97302.38;5038227;28;1065;-75
2023/12/25 11:08:44;;;;;;;;;;;;;;;22.02;24.15;97308.41;5013646;28;906;-75
2023/12/25 11:11:13;;;;;;;;;;;;;;;21.92;24.18;97298.31;5014209;28;900;-75
2023/12/25 11:13:39;;;;;;;;;;;;;;;21.83;24.26;97290.53;5013683;28;888;-75
2023/12/25 11:16:05;;;;;;;;;;;;;;;22.05;23.85;97293.31;4997041;28;984;-75
2023/12/25 11:18:32;;;;;;;;;;;;;;;21.48;24.61;97287.81;4997575;28;899;-75
2023/12/25 11:21:02;;;;;;;;;;;;;;;21.21;25.10;97290.41;5013896;28;793;-75
2023/12/25 11:23:29;;;;;;;;;;;;;;;21.18;25.19;97297.78;4980943;28;1891;-75
2023/12/25 11:25:55;;;;;;;;;;;;;;;21.55;24.89;97293.22;4997362;28;989;-75
2023/12/25 11:28:21;;;;;;;;;;;;;;;22.03;24.25;97310.00;5013353;28;909;-75
2023/12/25 11:30:46;;;;;;;;;;;;;;;22.03;24.28;97307.19;4997375;28;1531;-75
2023/12/25 11:33:12;;;;;;;;;;;;;;;21.91;24.61;97302.38;5013575;28;1311;-75
2023/12/25 11:35:38;;;;;;;;;;;;;;;21.91;24.64;97302.38;4997212;28;803;-75
2023/12/25 11:38:19;;;;;;;;;;;;;;;22.00;24.71;97299.59;5013758;28;846;-75
2023/12/25 11:40:44;;;;;;;;;;;;;;;21.65;25.15;97296.88;5013397;28;972;-75
2023/12/25 11:43:10;;;;;;;;;;;;;;;21.62;25.35;97285.72;5013403;28;1910;-75
2023/12/25 11:45:42;;;;;;;;;;;;;;;21.64;25.23;97289.63;5022133;28;1128;-75
2023/12/25 11:48:10;;;;;;;;;;;;;;;21.72;25.20;97293.00;5019739;28;1077;-75
2023/12/25 11:50:36;;;;;;;;;;;;;;;21.97;25.11;97300.53;5019931;28;1262;-75
2023/12/25 11:53:02;;;;;;;;;;;;;;;21.99;24.85;97306.53;5019906;28;983;-75
2023/12/25 11:55:27;;;;;;;;;;;;;;;21.94;25.24;97301.44;5053014;28;723;-75
2023/12/25 11:57:53;;;;;;;;;;;;;;;22.03;25.03;97301.50;5036243;28;786;-75
2023/12/25 12:00:20;;;;;;;;;;;;;;;21.71;25.34;97305.56;5022701;28;1134;-75
2023/12/25 12:02:46;;;;;;;;;;;;;;;21.39;26.17;97306.75;5040282;28;1983;-75
2023/12/25 12:05:12;;;;;;;;;;;;;;;21.78;25.62;97306.09;5017159;28;1069;-75
2023/12/25 12:07:37;;;;;;;;;;;;;;;21.68;25.57;97312.94;5017263;28;1298;-75
2023/12/25 12:10:03;;;;;;;;;;;;;;;21.90;25.57;97312.13;5017395;28;1092;-75
2023/12/25 12:12:29;;;;;;;;;;;;;;;22.01;25.09;97318.94;5017123;28;1352;-75
2023/12/25 12:14:54;;;;;;;;;;;;;;;21.92;25.38;97320.97;5017377;28;1159;-75
2023/12/25 12:17:21;;;;;;;;;;;;;;;21.65;25.72;97308.19;5017143;28;943;-75
2023/12/25 12:19:46;;;;;;;;;;;;;;;21.55;26.03;97332.84;5000645;28;991;-75
2023/12/25 12:22:12;;;;;;;;;;;;;;;21.55;26.20;97330.03;5013869;28;1902;-75
2023/12/25 12:24:37;;;;;;;;;;;;;;;21.82;25.40;97335.06;4997116;28;890;-75
2023/12/25 12:27:04;;;;;;;;;;;;;;;21.85;25.33;97336.97;4997009;28;892;-75
2023/12/25 12:29:29;;;;;;;;;;;;;;;21.91;25.51;97342.03;4997596;28;1064;-75
2023/12/25 12:31:55;;;;;;;;;;;;;;;22.01;25.42;97335.16;4997080;28;1302;-75
2023/12/25 12:34:20;;;;;;;;;;;;;;;21.53;25.90;97335.34;4997300;28;918;-75
2023/12/25 12:36:59;;;;;;;;;;;;;;;21.29;26.13;97343.44;5042069;28;775;-75
2023/12/25 12:39:25;;;;;;;;;;;;;;;21.45;26.07;97333.22;5040555;28;839;-75
2023/12/25 12:41:50;;;;;;;;;;;;;;;21.56;25.42;97294.78;5041181;28;876;-75
2023/12/25 12:44:16;;;;;;;;;;;;;;;21.90;25.37;97329.13;5041040;28;1918;-75
2023/12/25 12:46:41;;;;;;;;;;;;;;;21.77;25.55;97338.50;5036202;28;1065;-75
2023/12/25 12:49:07;;;;;;;;;;;;;;;21.86;25.66;97334.91;5036331;28;1040;-75
2023/12/25 12:51:33;;;;;;;;;;;;;;;21.98;25.22;97339.72;5035980;28;975;-76
2023/12/25 12:53:59;;;;;;;;;;;;;;;21.60;26.01;97351.25;5052724;28;962;-75